Time;durP1;ratioP1;P1;durP2;ratioP2;P2;SDS_P1;SDS_P2;PMS_P1;PMS_P2;Temp;Humidity;BMP_temperature;BMP_pressure;BME280_temperature;BME280_humidity;BME280_pressure;Samples;Min_cycle;Max_cycle;Signal;HPM_P1;HPM_P2
2021/06/24 00:01:29;;;;;;;27.23;6.85;;;;;;;;;;5032435;28;20006;-67
2021/06/24 00:03:57;;;;;;;18.48;6.47;;;;;;;;;;5031769;28;20511;-66
2021/06/24 00:06:24;;;;;;;23.90;7.00;;;;;;;;;;5032422;28;20024;-67
2021/06/24 00:08:53;;;;;;;18.60;7.82;;;;;;;;;;5032335;28;20029;-67
2021/06/24 00:11:21;;;;;;;25.25;8.13;;;;;;;;;;5032375;28;20025;-67
2021/06/24 00:13:48;;;;;;;22.88;8.05;;;;;;;;;;5014129;28;20428;-67
2021/06/24 00:16:16;;;;;;;20.08;6.88;;;;;;;;;;5033692;28;20029;-67
2021/06/24 00:18:44;;;;;;;14.32;6.80;;;;;;;;;;5036327;28;20025;-67
2021/06/24 00:21:12;;;;;;;18.05;6.30;;;;;;;;;;5036294;28;20393;-67
2021/06/24 00:23:40;;;;;;;24.73;6.88;;;;;;;;;;5018383;28;20071;-67
2021/06/24 00:26:09;;;;;;;20.80;7.00;;;;;;;;;;5035713;28;20421;-66
2021/06/24 00:28:36;;;;;;;20.17;7.45;;;;;;;;;;5036156;28;20022;-67
2021/06/24 00:31:04;;;;;;;26.58;7.03;;;;;;;;;;5035886;28;20110;-67
2021/06/24 00:33:32;;;;;;;16.60;6.32;;;;;;;;;;5036019;28;20044;-67
2021/06/24 00:36:00;;;;;;;24.63;8.23;;;;;;;;;;5035689;28;20044;-67
2021/06/24 00:38:27;;;;;;;27.95;8.18;;;;;;;;;;5035771;28;20017;-67
2021/06/24 00:40:55;;;;;;;14.32;6.25;;;;;;;;;;5036014;28;20022;-67
2021/06/24 00:43:24;;;;;;;20.23;7.05;;;;;;;;;;5035796;28;20013;-67
2021/06/24 00:45:51;;;;;;;;;;;;;;;;;;5035887;28;20049;-67
2021/06/24 00:48:19;;;;;;;30.85;7.40;;;;;;;;;;5035601;28;19931;-67
2021/06/24 00:50:50;;;;;;;26.83;7.72;;;;;;;;;;5035684;28;20444;-67
2021/06/24 00:53:17;;;;;;;17.30;7.07;;;;;;;;;;5035719;28;20409;-67
2021/06/24 00:55:48;;;;;;;22.50;6.78;;;;;;;;;;5035555;28;20445;-67
2021/06/24 00:58:16;;;;;;;19.65;6.63;;;;;;;;;;5035133;28;20021;-67
2021/06/24 01:00:45;;;;;;;21.47;6.30;;;;;;;;;;5035545;28;20436;-67
2021/06/24 01:03:14;;;;;;;15.98;6.72;;;;;;;;;;5032894;28;20104;-67
2021/06/24 01:05:42;;;;;;;16.80;6.75;;;;;;;;;;5015658;28;20018;-67
2021/06/24 01:08:11;;;;;;;21.88;7.35;;;;;;;;;;5015139;28;20033;-67
2021/06/24 01:10:38;;;;;;;15.25;7.20;;;;;;;;;;5015578;28;20026;-67
2021/06/24 01:13:07;;;;;;;15.95;7.18;;;;;;;;;;5015254;28;20026;-67
2021/06/24 01:15:35;;;;;;;15.32;6.70;;;;;;;;;;5015342;28;20043;-67
2021/06/24 01:18:02;;;;;;;24.00;7.97;;;;;;;;;;5015571;28;20459;-66
2021/06/24 01:20:39;;;;;;;18.67;6.63;;;;;;;;;;5015261;28;20084;-66
2021/06/24 01:23:07;;;;;;;23.40;7.90;;;;;;;;;;5015245;28;20483;-67
2021/06/24 01:25:35;;;;;;;14.88;6.40;;;;;;;;;;5015271;28;20022;-67
2021/06/24 01:28:07;;;;;;;20.30;8.93;;;;;;;;;;5013831;28;20026;-67
2021/06/24 01:30:35;;;;;;;20.45;6.80;;;;;;;;;;5014984;28;20032;-67
2021/06/24 01:33:04;;;;;;;13.80;6.50;;;;;;;;;;5015174;28;20014;-67
2021/06/24 01:35:32;;;;;;;20.88;6.40;;;;;;;;;;5014874;28;20370;-67
2021/06/24 01:38:05;;;;;;;20.02;7.68;;;;;;;;;;5014714;28;20026;-67
2021/06/24 01:40:33;;;;;;;13.73;5.85;;;;;;;;;;5014973;28;20026;-67
2021/06/24 01:43:02;;;;;;;20.73;6.50;;;;;;;;;;5015017;28;20416;-67
2021/06/24 01:45:30;;;;;;;17.27;6.25;;;;;;;;;;5014635;28;20372;-67
2021/06/24 01:47:57;;;;;;;18.45;6.60;;;;;;;;;;5014672;28;20079;-67
2021/06/24 01:50:25;;;;;;;15.30;6.32;;;;;;;;;;5015232;28;20045;-67
2021/06/24 01:52:53;;;;;;;14.45;6.05;;;;;;;;;;5014650;28;20181;-67
2021/06/24 01:55:32;;;;;;;12.00;5.80;;;;;;;;;;4996914;28;20037;-67
2021/06/24 01:58:02;;;;;;;16.73;6.20;;;;;;;;;;5014401;28;20018;-67
2021/06/24 02:00:30;;;;;;;13.73;5.60;;;;;;;;;;5014484;28;20022;-67
2021/06/24 02:02:58;;;;;;;14.65;6.22;;;;;;;;;;5014061;28;20025;-67
2021/06/24 02:05:25;;;;;;;20.40;6.18;;;;;;;;;;5034002;28;20080;-67
2021/06/24 02:07:53;;;;;;;18.65;7.22;;;;;;;;;;5034337;28;20032;-67
2021/06/24 02:10:21;;;;;;;17.02;6.25;;;;;;;;;;5016758;28;20083;-67
2021/06/24 02:12:49;;;;;;;22.95;5.85;;;;;;;;;;5034188;28;20029;-67
2021/06/24 02:15:17;;;;;;;15.32;6.55;;;;;;;;;;5033974;28;20470;-67
2021/06/24 02:17:45;;;;;;;11.90;5.85;;;;;;;;;;5033856;28;20026;-67
2021/06/24 02:20:15;;;;;;;15.65;5.65;;;;;;;;;;5033843;28;20079;-66
2021/06/24 02:22:44;;;;;;;14.30;6.72;;;;;;;;;;5033912;28;20470;-66
2021/06/24 02:25:13;;;;;;;14.85;6.05;;;;;;;;;;5033961;28;20040;-67
2021/06/24 02:27:41;;;;;;;13.35;5.55;;;;;;;;;;5033883;28;20068;-67
2021/06/24 02:30:11;;;;;;;11.60;5.95;;;;;;;;;;5033454;28;20025;-66
2021/06/24 02:32:39;;;;;;;13.45;6.38;;;;;;;;;;5033775;28;20104;-67
2021/06/24 02:35:08;;;;;;;14.52;6.45;;;;;;;;;;5033736;28;20028;-67
2021/06/24 02:37:36;;;;;;;12.57;5.25;;;;;;;;;;5033732;28;20128;-67
2021/06/24 02:40:04;;;;;;;13.45;5.90;;;;;;;;;;5033092;28;20105;-67
2021/06/24 02:42:32;;;;;;;18.23;6.80;;;;;;;;;;5033518;28;20079;-67
2021/06/24 02:45:00;;;;;;;24.20;6.25;;;;;;;;;;5033313;28;20363;-67
2021/06/24 02:47:28;;;;;;;16.25;5.97;;;;;;;;;;5033542;28;20025;-67
2021/06/24 02:49:56;;;;;;;14.80;5.75;;;;;;;;;;5033325;28;20021;-67
2021/06/24 02:52:24;;;;;;;15.50;7.15;;;;;;;;;;5015768;28;20025;-67
2021/06/24 02:54:51;;;;;;;19.42;7.28;;;;;;;;;;5033296;28;20029;-66
2021/06/24 02:57:20;;;;;;;19.27;7.03;;;;;;;;;;5033096;28;20028;-66
2021/06/24 02:59:47;;;;;;;14.70;6.40;;;;;;;;;;5033281;28;20028;-66
2021/06/24 03:02:15;;;;;;;9.38;6.53;;;;;;;;;;5033198;28;20409;-66
2021/06/24 03:04:43;;;;;;;10.70;6.68;;;;;;;;;;5033005;28;20367;-66
2021/06/24 03:07:11;;;;;;;14.90;6.65;;;;;;;;;;5033236;28;20107;-67
2021/06/24 03:09:39;;;;;;;10.48;6.93;;;;;;;;;;5033199;28;20045;-67
2021/06/24 03:12:07;;;;;;;10.95;6.45;;;;;;;;;;5015001;28;20028;-67
2021/06/24 03:14:35;;;;;;;11.30;6.88;;;;;;;;;;5033077;28;20456;-67
2021/06/24 03:17:03;;;;;;;13.32;6.82;;;;;;;;;;5032969;28;20079;-66
2021/06/24 03:19:30;;;;;;;15.68;6.90;;;;;;;;;;5032800;28;20033;-66
2021/06/24 03:21:58;;;;;;;13.45;6.47;;;;;;;;;;5032486;28;20018;-66
2021/06/24 03:24:26;;;;;;;14.35;8.10;;;;;;;;;;5032748;28;20018;-67
2021/06/24 03:26:54;;;;;;;18.58;7.40;;;;;;;;;;5032699;28;20027;-67
2021/06/24 03:29:21;;;;;;;20.20;7.78;;;;;;;;;;5032801;28;20025;-67
2021/06/24 03:31:49;;;;;;;15.05;7.22;;;;;;;;;;5032838;28;20029;-67
2021/06/24 03:34:17;;;;;;;10.43;6.53;;;;;;;;;;5032663;28;20025;-67
2021/06/24 03:36:44;;;;;;;10.32;6.75;;;;;;;;;;5032632;28;20037;-67
2021/06/24 03:39:12;;;;;;;14.57;7.18;;;;;;;;;;5032404;28;20018;-67
2021/06/24 03:41:40;;;;;;;10.60;6.30;;;;;;;;;;5032833;28;20026;-67
2021/06/24 03:44:08;;;;;;;16.08;6.15;;;;;;;;;;5032517;28;20021;-66
2021/06/24 03:46:36;;;;;;;16.65;7.20;;;;;;;;;;5032591;28;20528;-67
2021/06/24 03:49:05;;;;;;;13.20;6.43;;;;;;;;;;5032462;28;20025;-67
2021/06/24 03:51:32;;;;;;;19.35;6.68;;;;;;;;;;5031760;28;20025;-67
2021/06/24 03:54:00;;;;;;;18.52;7.00;;;;;;;;;;5031076;28;20397;-67
2021/06/24 03:56:28;;;;;;;12.68;6.47;;;;;;;;;;5032410;28;20026;-67
2021/06/24 03:58:56;;;;;;;14.48;7.00;;;;;;;;;;5032582;28;20022;-67
2021/06/24 04:01:24;;;;;;;13.98;6.47;;;;;;;;;;5032390;28;20022;-67
2021/06/24 04:03:52;;;;;;;12.07;6.63;;;;;;;;;;5031711;28;20021;-66
2021/06/24 04:06:20;;;;;;;12.05;7.15;;;;;;;;;;5032252;28;20029;-67
2021/06/24 04:08:47;;;;;;;16.20;7.10;;;;;;;;;;5032406;28;20377;-67
2021/06/24 04:11:15;;;;;;;16.70;7.03;;;;;;;;;;5030956;28;20460;-67
2021/06/24 04:13:43;;;;;;;18.90;7.70;;;;;;;;;;5032341;28;20094;-67
2021/06/24 04:16:11;;;;;;;13.73;7.28;;;;;;;;;;5031926;28;20065;-67
2021/06/24 04:18:39;;;;;;;13.80;7.28;;;;;;;;;;5032210;28;20343;-67
2021/06/24 04:21:07;;;;;;;18.83;6.93;;;;;;;;;;5032195;28;20021;-67
2021/06/24 04:23:35;;;;;;;20.70;6.20;;;;;;;;;;5032199;28;20097;-67
2021/06/24 04:26:03;;;;;;;15.27;5.95;;;;;;;;;;5032045;28;20021;-67
2021/06/24 04:28:31;;;;;;;14.57;6.68;;;;;;;;;;5030830;28;20029;-67
2021/06/24 04:30:59;;;;;;;18.85;7.05;;;;;;;;;;5032236;28;20478;-67
2021/06/24 04:33:27;;;;;;;22.37;7.00;;;;;;;;;;5031983;28;20014;-67
2021/06/24 04:35:55;;;;;;;19.25;7.05;;;;;;;;;;5031810;28;20039;-67
2021/06/24 04:38:23;;;;;;;17.52;7.30;;;;;;;;;;5032191;28;20026;-67
2021/06/24 04:40:51;;;;;;;26.95;7.63;;;;;;;;;;5031970;28;20025;-67
2021/06/24 04:43:19;;;;;;;17.88;6.95;;;;;;;;;;5030799;28;20029;-67
2021/06/24 04:45:47;;;;;;;17.90;6.60;;;;;;;;;;5032095;28;20021;-67
2021/06/24 04:48:15;;;;;;;18.63;7.07;;;;;;;;;;5031546;28;20028;-67
2021/06/24 04:50:43;;;;;;;19.48;6.32;;;;;;;;;;5032015;28;20032;-67
2021/06/24 04:53:10;;;;;;;18.77;6.05;;;;;;;;;;5031945;28;20079;-67
2021/06/24 04:55:41;;;;;;;26.15;7.78;;;;;;;;;;5031885;28;20032;-67
2021/06/24 04:58:09;;;;;;;24.88;6.90;;;;;;;;;;5031916;28;20080;-67
2021/06/24 05:00:37;;;;;;;22.10;6.32;;;;;;;;;;5031763;28;20029;-67
2021/06/24 05:03:09;;;;;;;17.73;6.67;;;;;;;;;;5034574;28;20478;-67
2021/06/24 05:05:38;;;;;;;16.00;5.90;;;;;;;;;;5035054;28;20041;-67
2021/06/24 05:08:04;;;;;;;;;;;;;;;;;;5035577;28;20025;-67
2021/06/24 05:10:32;;;;;;;19.63;6.05;;;;;;;;;;5035251;28;19951;-67
2021/06/24 05:13:00;;;;;;;22.00;5.88;;;;;;;;;;5035338;28;20028;-67
2021/06/24 05:15:27;;;;;;;19.60;5.15;;;;;;;;;;5034881;28;20022;-67
2021/06/24 05:17:55;;;;;;;24.77;6.95;;;;;;;;;;5034979;28;20017;-66
2021/06/24 05:20:23;;;;;;;26.13;6.78;;;;;;;;;;5035145;28;20028;-67
2021/06/24 05:22:51;;;;;;;20.17;5.00;;;;;;;;;;5035037;28;20025;-66
2021/06/24 05:25:18;;;;;;;27.85;5.80;;;;;;;;;;5035017;28;20301;-67
2021/06/24 05:27:46;;;;;;;36.08;6.50;;;;;;;;;;5034854;28;20028;-66
2021/06/24 05:30:14;;;;;;;26.55;6.10;;;;;;;;;;5034680;28;20526;-67
2021/06/24 05:32:44;;;;;;;20.23;5.60;;;;;;;;;;5034995;28;20032;-67
2021/06/24 05:35:13;;;;;;;14.10;5.30;;;;;;;;;;5035481;28;20052;-66
2021/06/24 05:37:40;;;;;;;36.90;5.93;;;;;;;;;;5034682;28;20121;-67
2021/06/24 05:40:08;;;;;;;24.92;5.03;;;;;;;;;;5034521;28;20029;-66
2021/06/24 05:42:36;;;;;;;23.17;5.88;;;;;;;;;;5034464;28;20062;-67
2021/06/24 05:45:05;;;;;;;22.05;5.47;;;;;;;;;;5034807;28;20029;-67
2021/06/24 05:47:33;;;;;;;14.10;4.35;;;;;;;;;;5034423;28;20038;-67
2021/06/24 05:50:00;;;;;;;18.57;4.00;;;;;;;;;;5034361;28;20025;-67
2021/06/24 05:52:28;;;;;;;13.83;4.10;;;;;;;;;;5034535;28;20025;-67
2021/06/24 05:54:56;;;;;;;19.00;4.32;;;;;;;;;;5024111;28;20040;-66
2021/06/24 05:57:26;;;;;;;12.45;4.68;;;;;;;;;;5033308;28;20005;-66
2021/06/24 05:59:55;;;;;;;18.42;5.53;;;;;;;;;;5033851;28;20151;-66
2021/06/24 06:02:23;;;;;;;16.48;5.05;;;;;;;;;;5033067;28;20029;-66
2021/06/24 06:04:51;;;;;;;22.83;5.35;;;;;;;;;;5034118;28;20045;-66
2021/06/24 06:07:18;;;;;;;26.57;5.77;;;;;;;;;;5032395;28;20101;-65
2021/06/24 06:09:46;;;;;;;18.83;5.20;;;;;;;;;;5031400;28;20270;-65
2021/06/24 06:12:13;;;;;;;14.70;5.90;;;;;;;;;;5028637;28;20037;-69
2021/06/24 06:14:41;;;;;;;12.75;5.25;;;;;;;;;;5030110;28;20104;-63
2021/06/24 06:17:09;;;;;;;23.45;6.30;;;;;;;;;;5031157;28;20021;-63
2021/06/24 06:19:38;;;;;;;17.77;5.32;;;;;;;;;;5032792;28;20018;-64
2021/06/24 06:22:06;;;;;;;20.30;5.18;;;;;;;;;;5033018;28;20496;-69
2021/06/24 06:24:33;;;;;;;28.70;6.15;;;;;;;;;;5032286;28;20030;-68
2021/06/24 06:27:02;;;;;;;30.60;5.35;;;;;;;;;;5033049;28;20148;-69
2021/06/24 06:29:30;;;;;;;24.10;5.33;;;;;;;;;;5031463;28;20097;-66
2021/06/24 06:31:58;;;;;;;18.33;4.97;;;;;;;;;;5009929;28;20083;-66
2021/06/24 06:34:25;;;;;;;15.48;5.15;;;;;;;;;;5032081;28;20021;-67
2021/06/24 06:36:53;;;;;;;22.05;3.65;;;;;;;;;;5032317;28;20025;-64
2021/06/24 06:39:21;;;;;;;16.83;4.05;;;;;;;;;;5032605;28;20488;-74
2021/06/24 06:41:48;;;;;;;13.95;4.85;;;;;;;;;;5033186;28;20092;-67
2021/06/24 06:44:16;;;;;;;19.92;4.68;;;;;;;;;;5031991;28;20021;-65
2021/06/24 06:46:44;;;;;;;24.35;3.90;;;;;;;;;;5031136;28;20021;-67
2021/06/24 06:49:11;;;;;;;15.30;4.15;;;;;;;;;;5031445;28;20021;-62
2021/06/24 06:51:39;;;;;;;14.75;3.90;;;;;;;;;;5031802;28;20052;-62
2021/06/24 06:54:06;;;;;;;66.13;6.60;;;;;;;;;;5032204;28;20064;-65
2021/06/24 06:56:34;;;;;;;23.77;4.53;;;;;;;;;;5030907;28;20076;-66
2021/06/24 06:59:06;;;;;;;15.13;4.10;;;;;;;;;;5034708;28;20023;-63
2021/06/24 07:01:33;;;;;;;19.45;3.80;;;;;;;;;;5012571;28;20441;-73
2021/06/24 07:04:01;;;;;;;6.60;2.75;;;;;;;;;;5031916;28;20104;-71
2021/06/24 07:06:29;;;;;;;22.27;4.37;;;;;;;;;;5031641;28;20498;-64
2021/06/24 07:08:57;;;;;;;31.63;4.40;;;;;;;;;;5032177;28;20052;-63
2021/06/24 07:11:25;;;;;;;117.47;9.35;;;;;;;;;;5031898;28;20254;-70
2021/06/24 07:13:53;;;;;;;14.40;3.75;;;;;;;;;;5031667;28;20489;-67
2021/06/24 07:16:22;;;;;;;17.60;3.88;;;;;;;;;;5029373;28;20087;-65
2021/06/24 07:18:49;;;;;;;12.93;3.78;;;;;;;;;;5029113;28;20530;-68
2021/06/24 07:21:17;;;;;;;19.30;3.58;;;;;;;;;;5024825;28;20082;-69
2021/06/24 07:23:45;;;;;;;16.58;3.55;;;;;;;;;;5010431;28;20176;-67
2021/06/24 07:26:13;;;;;;;18.35;4.07;;;;;;;;;;5028818;28;20024;-67
2021/06/24 07:28:40;;;;;;;12.23;3.05;;;;;;;;;;5028953;28;20044;-67
2021/06/24 07:31:08;;;;;;;16.10;3.37;;;;;;;;;;5029436;28;20033;-64
2021/06/24 07:33:36;;;;;;;14.95;4.05;;;;;;;;;;5028713;28;20014;-62
2021/06/24 07:36:04;;;;;;;21.60;3.33;;;;;;;;;;5031418;28;20481;-62
2021/06/24 07:38:38;;;;;;;9.95;3.13;;;;;;;;;;5031642;28;20021;-77
2021/06/24 07:41:10;;;;;;;17.73;3.65;;;;;;;;;;5027268;28;20036;-65
2021/06/24 07:43:45;;;;;;;12.15;2.90;;;;;;;;;;5024213;28;20017;-66
2021/06/24 07:46:17;;;;;;;;;;;;;;;;;;5014492;28;20048;-66
2021/06/24 07:48:50;;;;;;;13.93;2.55;;;;;;;;;;5030495;28;19949;-63
2021/06/24 07:51:19;;;;;;;8.60;2.65;;;;;;;;;;5031274;28;20049;-63
2021/06/24 07:53:47;;;;;;;13.73;3.20;;;;;;;;;;5030831;28;20359;-68
2021/06/24 07:56:15;;;;;;;13.77;2.75;;;;;;;;;;5011879;28;20040;-67
2021/06/24 07:58:43;;;;;;;16.88;2.70;;;;;;;;;;5031382;28;20080;-67
2021/06/24 08:01:11;;;;;;;6.53;2.20;;;;;;;;;;5031018;28;20032;-70
2021/06/24 08:03:38;;;;;;;12.23;3.53;;;;;;;;;;5031302;28;20043;-76
2021/06/24 08:06:06;;;;;;;10.00;2.60;;;;;;;;;;5031784;28;20052;-74
2021/06/24 08:08:34;;;;;;;9.45;2.78;;;;;;;;;;5013474;28;20459;-67
2021/06/24 08:11:02;;;;;;;13.25;2.53;;;;;;;;;;5030664;28;20117;-69
2021/06/24 08:13:29;;;;;;;18.38;2.80;;;;;;;;;;5031518;28;20079;-72
2021/06/24 08:15:59;;;;;;;20.13;2.73;;;;;;;;;;5013090;28;20029;-72
2021/06/24 08:18:26;;;;;;;11.88;3.10;;;;;;;;;;5029759;28;20017;-64
2021/06/24 08:20:54;;;;;;;10.27;2.73;;;;;;;;;;5030959;28;20026;-63
2021/06/24 08:23:22;;;;;;;13.00;2.67;;;;;;;;;;5020888;28;20631;-62
2021/06/24 08:25:49;;;;;;;;;;;;;;;;;;5031414;28;20033;-72
2021/06/24 08:28:16;;;;;;;10.70;2.40;;;;;;;;;;5031762;28;19911;-70
2021/06/24 08:30:48;;;;;;;21.63;3.38;;;;;;;;;;5031185;28;20018;-64
2021/06/24 08:33:16;;;;;;;11.15;2.72;;;;;;;;;;5031018;28;20111;-68
2021/06/24 08:35:44;;;;;;;15.73;3.45;;;;;;;;;;5013163;28;20402;-67
2021/06/24 08:38:12;;;;;;;17.23;3.42;;;;;;;;;;5033452;28;20025;-71
2021/06/24 08:40:42;;;;;;;12.02;2.63;;;;;;;;;;5034331;28;20033;-67
2021/06/24 08:43:10;;;;;;;18.63;3.08;;;;;;;;;;5034163;28;20029;-66
2021/06/24 08:45:40;;;;;;;23.80;3.37;;;;;;;;;;5034858;28;20025;-69
2021/06/24 08:48:13;;;;;;;11.07;2.20;;;;;;;;;;5034384;28;20018;-66
2021/06/24 08:50:44;;;;;;;10.30;2.53;;;;;;;;;;5017931;28;20438;-67
2021/06/24 08:53:11;;;;;;;18.75;3.83;;;;;;;;;;5034009;28;20104;-67
2021/06/24 08:55:43;;;;;;;12.90;3.47;;;;;;;;;;5033957;28;20144;-67
2021/06/24 08:58:11;;;;;;;15.88;3.33;;;;;;;;;;5032743;28;20048;-64
2021/06/24 09:00:38;;;;;;;14.67;3.03;;;;;;;;;;5018382;28;20033;-65
2021/06/24 09:03:16;;;;;;;23.75;3.58;;;;;;;;;;5033670;28;20675;-70
2021/06/24 09:05:50;;;;;;;17.25;2.97;;;;;;;;;;5016531;28;20049;-70
2021/06/24 09:08:30;;;;;;;19.17;3.88;;;;;;;;;;5033736;28;20021;-67
2021/06/24 09:11:15;;;;;;;14.35;3.28;;;;;;;;;;5024828;28;20776;-71
2021/06/24 09:13:44;;;;;;;16.17;2.47;;;;;;;;;;5035604;28;20036;-66
2021/06/24 09:16:25;;;;;;;14.15;3.47;;;;;;;;;;5032934;28;20120;-67
2021/06/24 09:19:13;;;;;;;21.73;3.53;;;;;;;;;;5034328;28;20032;-65
2021/06/24 09:21:40;;;;;;;51.08;5.97;;;;;;;;;;5026629;28;20017;-65
2021/06/24 09:24:27;;;;;;;17.20;3.58;;;;;;;;;;5046124;28;20486;-70
2021/06/24 09:26:55;;;;;;;22.15;3.95;;;;;;;;;;5036754;28;20025;-67
2021/06/24 09:29:23;;;;;;;17.10;3.97;;;;;;;;;;5033741;28;20014;-66
2021/06/24 09:31:55;;;;;;;15.40;3.35;;;;;;;;;;5032910;28;20014;-67
2021/06/24 09:34:23;;;;;;;29.55;3.95;;;;;;;;;;5015947;28;20076;-67
2021/06/24 09:36:54;;;;;;;27.73;3.90;;;;;;;;;;5033611;28;20037;-67
2021/06/24 09:39:24;;;;;;;33.05;4.82;;;;;;;;;;5035455;28;20029;-66
2021/06/24 09:42:09;;;;;;;23.90;4.32;;;;;;;;;;5039268;28;20033;-68
2021/06/24 09:44:38;;;;;;;19.67;3.78;;;;;;;;;;5000897;28;20446;-64
2021/06/24 09:47:16;;;;;;;20.77;3.65;;;;;;;;;;5033072;28;20018;-64
2021/06/24 09:49:43;;;;;;;19.35;3.78;;;;;;;;;;5032484;28;20021;-71
2021/06/24 09:52:11;;;;;;;23.13;4.13;;;;;;;;;;5031047;28;20556;-64
2021/06/24 09:54:43;;;;;;;23.83;4.53;;;;;;;;;;5031611;28;20378;-63
2021/06/24 09:57:23;;;;;;;23.40;5.32;;;;;;;;;;5034313;28;20048;-62
2021/06/24 09:59:51;;;;;;;18.63;4.88;;;;;;;;;;5040104;28;20044;-72
2021/06/24 10:02:20;;;;;;;23.30;5.07;;;;;;;;;;5031940;28;20041;-66
2021/06/24 10:04:46;;;;;;;;;;;;;;;;;;5033219;28;20045;-66
2021/06/24 10:07:17;;;;;;;22.63;5.40;;;;;;;;;;5032234;28;20345;-66
2021/06/24 10:09:46;;;;;;;18.85;4.65;;;;;;;;;;5031298;28;20025;-71
2021/06/24 10:12:15;;;;;;;29.63;6.05;;;;;;;;;;5031702;28;20013;-65
2021/06/24 10:14:42;;;;;;;27.10;4.70;;;;;;;;;;5005071;28;20156;-64
2021/06/24 10:17:10;;;;;;;15.02;4.28;;;;;;;;;;5032640;28;20120;-67
2021/06/24 10:19:41;;;;;;;26.73;4.57;;;;;;;;;;5024503;28;20116;-67
2021/06/24 10:22:26;;;;;;;21.58;4.53;;;;;;;;;;5031845;28;20377;-64
2021/06/24 10:24:56;;;;;;;18.05;4.30;;;;;;;;;;5030173;28;20044;-63
2021/06/24 10:27:29;;;;;;;18.45;4.40;;;;;;;;;;5031672;28;20025;-70
2021/06/24 10:30:07;;;;;;;17.27;4.78;;;;;;;;;;5036451;28;20100;-68
2021/06/24 10:32:35;;;;;;;17.80;4.80;;;;;;;;;;5037367;28;20024;-66
2021/06/24 10:35:04;;;;;;;20.90;4.25;;;;;;;;;;5035103;28;20071;-66
2021/06/24 10:37:32;;;;;;;20.92;3.90;;;;;;;;;;5031026;28;20385;-72
2021/06/24 10:40:03;;;;;;;24.73;3.90;;;;;;;;;;5031588;28;20035;-72
2021/06/24 10:42:32;;;;;;;22.80;4.03;;;;;;;;;;5031639;28;20367;-69
2021/06/24 10:45:02;;;;;;;25.55;4.35;;;;;;;;;;5032098;28;20406;-69
2021/06/24 10:47:31;;;;;;;18.58;4.95;;;;;;;;;;5030797;28;20032;-67
2021/06/24 10:50:16;;;;;;;25.48;4.78;;;;;;;;;;5026387;28;20075;-70
2021/06/24 10:52:44;;;;;;;34.35;5.63;;;;;;;;;;5022059;28;20033;-65
2021/06/24 10:55:30;;;;;;;23.83;5.28;;;;;;;;;;5039298;28;20122;-64
2021/06/24 10:57:58;;;;;;;28.98;4.60;;;;;;;;;;5039286;28;20025;-65
2021/06/24 11:01:00;;;;;;;26.00;5.63;;;;;;;;;;5030468;28;20045;-71
2021/06/24 11:03:40;;;;;;;18.45;4.38;;;;;;;;;;4951205;28;20480;-64
2021/06/24 11:06:11;;;;;;;22.00;4.70;;;;;;;;;;4950565;29;20035;-63
2021/06/24 11:08:42;;;;;;;20.88;5.00;;;;;;;;;;4950654;29;20067;-71
2021/06/24 11:11:10;;;;;;;23.58;4.28;;;;;;;;;;4950760;29;20047;-65
2021/06/24 11:13:38;;;;;;;22.85;4.47;;;;;;;;;;4950734;29;20102;-65
2021/06/24 11:16:05;;;;;;;;;;;;;;;;;;4950840;29;20039;-65
2021/06/24 11:18:32;;;;;;;28.38;4.70;;;;;;;;;;4952708;28;20310;-65
2021/06/24 11:21:01;;;;;;;20.63;4.90;;;;;;;;;;4949017;29;20039;-66
2021/06/24 11:23:30;;;;;;;22.85;5.57;;;;;;;;;;4949311;29;20027;-68
2021/06/24 11:26:11;;;;;;;27.50;6.22;;;;;;;;;;4950295;28;20040;-64
2021/06/24 11:28:51;;;;;;;18.25;5.35;;;;;;;;;;4950765;29;20122;-64
2021/06/24 11:31:21;;;;;;;21.35;4.10;;;;;;;;;;4950177;29;20042;-69
2021/06/24 11:34:49;;;;;;;21.25;4.28;;;;;;;;;;4949837;29;20031;-71
2021/06/24 11:36:50;;;;;;;69.25;7.22;;;;;;;;;;4959439;28;20041;-67
2021/06/24 11:39:40;;;;;;;32.95;5.35;;;;;;;;;;5027934;28;20108;-68
2021/06/24 11:42:12;;;;;;;26.00;4.97;;;;;;;;;;5003886;28;20037;-73
2021/06/24 11:44:44;;;;;;;23.15;5.15;;;;;;;;;;5016605;28;20032;-69
2021/06/24 11:47:12;;;;;;;21.30;5.03;;;;;;;;;;5030913;28;20025;-65
2021/06/24 12:01:11;;;;;;;22.45;5.63;;;;;;;;;;5029909;28;20043;-64
2021/06/24 12:03:38;;;;;;;22.73;4.72;;;;;;;;;;5028085;28;20423;-69
2021/06/24 12:06:05;;;;;;;21.88;5.47;;;;;;;;;;5029515;28;20049;-63
2021/06/24 12:08:33;;;;;;;19.33;4.68;;;;;;;;;;5028747;28;20060;-64
2021/06/24 12:11:07;;;;;;;27.80;5.03;;;;;;;;;;5034278;28;20446;-70
2021/06/24 12:13:37;;;;;;;34.05;5.13;;;;;;;;;;5041687;28;20021;-65
2021/06/24 12:16:05;;;;;;;30.88;5.38;;;;;;;;;;5041340;28;20041;-65
2021/06/24 12:18:51;;;;;;;25.95;5.63;;;;;;;;;;5039560;28;20027;-65
2021/06/24 12:21:19;;;;;;;31.35;4.93;;;;;;;;;;5033863;28;20083;-67
2021/06/24 12:23:48;;;;;;;25.67;5.57;;;;;;;;;;5034062;28;20056;-66
2021/06/24 12:26:17;;;;;;;33.70;4.93;;;;;;;;;;5034414;28;20043;-66
2021/06/24 12:28:45;;;;;;;21.58;4.25;;;;;;;;;;5033569;28;20056;-68
2021/06/24 12:31:25;;;;;;;26.23;5.05;;;;;;;;;;5034036;28;20025;-66
2021/06/24 12:34:03;;;;;;;17.30;5.07;;;;;;;;;;5029390;28;20087;-63
2021/06/24 12:36:32;;;;;;;26.13;4.78;;;;;;;;;;5026318;28;20465;-67
2021/06/24 12:39:00;;;;;;;26.00;5.10;;;;;;;;;;5015269;28;20026;-65
2021/06/24 12:41:30;;;;;;;33.30;6.10;;;;;;;;;;5033184;28;20060;-65
2021/06/24 12:44:01;;;;;;;28.92;5.80;;;;;;;;;;5032685;28;20056;-62
2021/06/24 12:46:32;;;;;;;30.67;5.72;;;;;;;;;;5034406;28;20021;-65
2021/06/24 12:49:03;;;;;;;21.00;3.85;;;;;;;;;;5033011;28;20034;-71
2021/06/24 12:51:30;;;;;;;18.08;4.75;;;;;;;;;;5037349;28;20392;-69
2021/06/24 12:53:58;;;;;;;27.90;4.97;;;;;;;;;;5037616;28;20415;-72
2021/06/24 12:56:31;;;;;;;27.20;5.53;;;;;;;;;;5035460;28;20017;-64
2021/06/24 12:59:17;;;;;;;21.23;4.13;;;;;;;;;;5033326;28;20120;-67
2021/06/24 13:01:48;;;;;;;20.67;5.13;;;;;;;;;;5033480;28;20040;-65
2021/06/24 13:04:20;;;;;;;37.00;5.38;;;;;;;;;;5039935;28;20113;-66
2021/06/24 13:06:49;;;;;;;19.67;4.57;;;;;;;;;;5015579;28;20753;-68
2021/06/24 13:09:18;;;;;;;18.02;5.07;;;;;;;;;;5032695;28;20097;-70
2021/06/24 13:11:51;;;;;;;27.65;5.38;;;;;;;;;;5033048;28;20035;-64
2021/06/24 13:14:28;;;;;;;27.35;5.45;;;;;;;;;;5029683;28;20033;-63
2021/06/24 13:16:58;;;;;;;28.00;5.68;;;;;;;;;;5028590;28;20044;-67
2021/06/24 13:19:27;;;;;;;32.72;5.95;;;;;;;;;;5038308;28;20108;-68
2021/06/24 13:21:58;;;;;;;27.48;6.25;;;;;;;;;;5031349;28;20033;-67
2021/06/24 13:24:27;;;;;;;21.65;4.60;;;;;;;;;;5003154;28;20017;-63
2021/06/24 13:27:06;;;;;;;24.02;5.07;;;;;;;;;;5033013;28;20025;-65
2021/06/24 13:29:33;;;;;;;28.77;5.82;;;;;;;;;;5029116;28;20026;-68
2021/06/24 13:32:02;;;;;;;24.67;5.90;;;;;;;;;;5030389;28;20025;-69
2021/06/24 13:34:32;;;;;;;;;;;;;;;;;;5033272;28;20017;-70
2021/06/24 13:37:18;;;;;;;28.25;5.65;;;;;;;;;;5031470;28;20707;-67
2021/06/24 13:39:46;;;;;;;28.25;6.70;;;;;;;;;;5035062;28;20025;-66
2021/06/24 13:42:13;;;;;;;39.25;6.97;;;;;;;;;;5038954;28;20369;-65
2021/06/24 13:44:41;;;;;;;25.92;5.10;;;;;;;;;;5035601;28;20029;-72
2021/06/24 13:47:09;;;;;;;27.13;4.93;;;;;;;;;;5033090;28;20071;-62
2021/06/24 13:49:37;;;;;;;28.17;4.97;;;;;;;;;;5030841;28;20051;-70
2021/06/24 13:52:05;;;;;;;37.50;5.50;;;;;;;;;;5014431;28;20029;-73
2021/06/24 13:54:32;;;;;;;31.75;5.32;;;;;;;;;;5032003;28;20029;-64
2021/06/24 13:57:01;;;;;;;27.70;5.60;;;;;;;;;;5033156;28;20497;-75
2021/06/24 13:59:27;;;;;;;;;;;;;;;;;;5037910;28;20261;-74
2021/06/24 14:01:55;;;;;;;21.77;5.18;;;;;;;;;;5039712;28;19928;-67
2021/06/24 14:04:23;;;;;;;40.33;6.85;;;;;;;;;;5042515;28;20033;-67
2021/06/24 14:06:51;;;;;;;23.27;5.18;;;;;;;;;;5039425;28;20033;-67
2021/06/24 14:09:20;;;;;;;36.40;6.97;;;;;;;;;;5043008;28;20021;-67
2021/06/24 14:11:50;;;;;;;30.92;6.25;;;;;;;;;;5040673;28;20021;-67
2021/06/24 14:14:18;;;;;;;27.17;4.97;;;;;;;;;;5039772;28;20016;-67
2021/06/24 14:16:46;;;;;;;30.95;4.93;;;;;;;;;;5039935;28;20043;-70
2021/06/24 14:19:14;;;;;;;35.42;7.00;;;;;;;;;;5009163;28;20025;-70
2021/06/24 14:21:42;;;;;;;26.80;5.32;;;;;;;;;;5028169;28;20009;-70
2021/06/24 14:24:10;;;;;;;21.55;5.18;;;;;;;;;;5029416;28;20083;-70
2021/06/24 14:26:38;;;;;;;40.63;6.43;;;;;;;;;;5031224;28;20421;-69
2021/06/24 14:29:04;;;;;;;35.35;5.43;;;;;;;;;;5029544;28;20013;-68
2021/06/24 14:31:30;;;;;;;30.55;5.70;;;;;;;;;;5030368;28;20029;-67
2021/06/24 14:33:55;;;;;;;38.97;5.60;;;;;;;;;;5031834;28;20051;-68
2021/06/24 14:36:21;;;;;;;31.23;6.30;;;;;;;;;;5032144;28;20398;-70
2021/06/24 14:38:47;;;;;;;33.50;5.40;;;;;;;;;;5014833;28;20500;-69
2021/06/24 14:41:13;;;;;;;21.33;6.00;;;;;;;;;;5032478;28;20061;-70
2021/06/24 14:43:39;;;;;;;33.35;6.57;;;;;;;;;;5032155;28;20358;-69
2021/06/24 14:46:07;;;;;;;37.22;6.28;;;;;;;;;;5014722;28;20014;-70
2021/06/24 14:48:33;;;;;;;41.30;6.05;;;;;;;;;;5032508;28;20028;-71
2021/06/24 14:50:59;;;;;;;31.00;7.03;;;;;;;;;;5014396;28;20786;-70
2021/06/24 14:53:25;;;;;;;38.78;6.20;;;;;;;;;;5014395;28;20021;-68
2021/06/24 14:55:51;;;;;;;46.78;6.30;;;;;;;;;;5031751;28;20105;-70
2021/06/24 14:58:17;;;;;;;32.58;5.55;;;;;;;;;;5032460;28;20014;-70